Latest Weather Observations for East Sale

IDV60801

Issued at 9:35 pm EST Friday 22 August 2014 (issued every 30 minutes, with the page automatically refreshed every 10 minutes)

About weather observations | Map of weather stations | Latest weather observations for VIC | Other Formats
Station Details ID: 085072 Name: EAST SALE AIRPORT Lat: -38.12 Lon: 147.13 Height: 4.6 m
Data from the previous 72 hours. | See also: Recent months at East Sale
Date/Time
EST
Temp
°C
App
Temp
°C
Dew
Point
Rel
Hum
%
Delta-T
°C
Wind Press
QNH
hPa
Press
MSL
hPa
Rain
since 9 am
mm
Dir
 
Spd
km/h
Gust
km/h
Spd
kts
Gust
kts
22/09:30pm 8.1 6.3 8.1 100 0.0 S 7 9 4 5 1030.1 - 0.2
22/09:22pm 8.8 7.1 8.2 96 0.3 S 7 9 4 5 1030.1 - 0.2
22/09:19pm 8.5 6.4 8.1 97 0.2 S 9 9 5 5 1030.0 - 0.2
22/09:00pm 8.5 6.7 8.1 97 0.2 S 7 9 4 5 1030.1 1030.1 0.2
22/08:56pm 8.6 6.9 8.2 97 0.2 S 7 9 4 5 1030.1 - 0.2
22/08:30pm 8.9 6.8 8.3 96 0.3 SSE 9 11 5 6 1030.1 - 0.2
22/08:00pm 9.0 6.5 8.4 96 0.3 SSE 11 13 6 7 1030.0 - 0.2
22/07:30pm 9.6 7.7 9.0 96 0.3 S 9 9 5 5 1030.0 - 0.2
22/07:00pm 8.8 6.3 8.2 96 0.3 ESE 11 13 6 7 1029.9 - 0.2
22/06:30pm 10.4 7.7 9.0 91 0.7 ESE 13 13 7 7 1029.7 - 0.2
22/06:00pm 10.7 8.5 9.3 91 0.7 E 11 13 6 7 1029.6 1029.6 0.2
22/05:30pm 12.3 10.1 9.5 83 1.4 E 11 13 6 7 1029.5 - 0.2
22/05:00pm 13.8 11.6 9.3 74 2.3 ENE 11 13 6 7 1029.3 - 0.2
22/04:30pm 14.4 10.3 8.7 68 2.9 E 20 26 11 14 1029.1 - 0.2
22/04:00pm 14.9 10.3 8.3 64 3.3 E 22 24 12 13 1029.0 - 0.2
22/03:30pm 15.3 11.1 8.4 63 3.5 E 20 24 11 13 1029.2 - 0.2
22/03:00pm 15.5 11.2 7.9 60 3.8 ESE 20 24 11 13 1029.3 1029.3 0.2
22/02:30pm 15.6 11.4 7.6 59 4.0 ESE 19 22 10 12 1029.6 - 0.2
22/02:00pm 15.4 11.1 7.1 57 4.1 ESE 19 26 10 14 1029.7 - 0.2
22/01:30pm 15.5 12.3 7.0 57 4.2 ESE 13 20 7 11 1030.0 - 0.2
22/01:00pm 14.4 11.8 7.7 64 3.3 ESE 11 17 6 9 1030.4 - 0.2
22/12:30pm 13.3 11.5 9.4 77 2.0 ESE 9 15 5 8 1030.8 - 0.0
22/12:00pm 12.3 10.2 9.7 84 1.3 ESE 11 15 6 8 1031.2 1031.2 0.0
22/11:30am 11.2 10.1 9.8 91 0.7 ESE 6 11 3 6 1031.7 - 0.0
22/11:00am 10.0 8.6 8.8 92 0.6 SE 6 9 3 5 1032.1 - 0.0
22/10:30am 8.8 7.2 8.6 99 0.1 S 7 9 4 5 1032.3 - 0.0
22/10:00am 7.9 6.6 7.7 99 0.1 S 4 7 2 4 1032.5 - 0.0
22/09:30am 6.8 5.3 6.6 99 0.1 E 4 7 2 4 1032.7 - 0.0
22/09:16am 6.7 5.5 6.5 99 0.1 NW 2 7 1 4 1032.8 - 0.0
22/09:00am 6.3 5.0 6.1 99 0.1 NW 2 6 1 3 1032.9 1032.9 0.0
22/08:52am 6.3 4.3 6.1 99 0.1 NNW 6 7 3 4 1033.0 - 0.0
22/08:30am 6.0 3.8 5.5 97 0.2 WNW 6 9 3 5 1032.8 - 0.0
22/08:27am 5.7 3.5 5.2 97 0.2 WNW 6 9 3 5 1032.8 - 0.0
22/08:00am 5.1 2.6 4.9 99 0.1 WNW 7 7 4 4 1032.5 - 0.0
22/07:30am 4.8 2.3 4.8 100 0.0 W 7 9 4 5 1032.4 - 0.0
22/07:00am 4.8 3.6 4.6 99 0.1 CALM 0 0 0 0 1031.9 - 0.0
22/06:30am 4.9 2.6 4.9 100 0.0 WNW 6 7 3 4 1031.7 - 0.0
22/06:00am 5.2 2.9 5.0 99 0.1 WNW 6 9 3 5 1031.4 1031.4 0.0
22/05:30am 5.4 3.2 5.2 99 0.1 WNW 6 7 3 4 1031.3 - 0.0
22/05:00am 5.6 4.2 5.6 100 0.0 NW 2 6 1 3 1031.2 - 0.0
22/04:30am 5.4 3.0 5.2 99 0.1 NW 7 7 4 4 1031.0 - 0.0
22/04:00am 5.1 2.6 4.9 99 0.1 NW 7 7 4 4 1030.9 - 0.0
22/03:30am 5.0 2.7 5.0 100 0.0 NNW 6 9 3 5 1030.9 - 0.0
22/03:00am 4.6 2.6 4.6 100 0.0 NW 4 7 2 4 1030.7 1030.7 0.0
22/02:30am 4.1 1.1 3.9 99 0.1 NW 9 9 5 5 1030.8 - 0.0
22/02:00am 4.2 1.6 4.0 99 0.1 NNW 7 9 4 5 1031.0 - 0.0
22/01:30am 5.1 2.2 4.9 99 0.1 NNW 9 11 5 6 1031.2 - 0.0
22/01:00am 3.6 0.4 3.1 97 0.2 NW 9 11 5 6 1031.3 - 0.0
22/12:30am 5.1 2.7 5.1 100 0.0 NW 7 9 4 5 1031.2 - 0.0
22/12:00am 5.9 3.8 5.9 100 0.0 NW 6 7 3 4 1031.3 1031.2 0.0
 
Date/Time
EST
Temp
°C
App
Temp
°C
Dew
Point
Rel
Hum
%
Delta-T
°C
Wind Press
QNH
hPa
Press
MSL
hPa
Rain
since 9 am
mm
Dir
 
Spd
km/h
Gust
km/h
Spd
kts
Gust
kts
21/11:42pm 8.0 6.3 7.4 96 0.3 NNW 6 7 3 4 1031.3 - 0.0
21/11:30pm 8.5 6.8 7.7 95 0.4 NE 6 7 3 4 1031.3 - 0.0
21/11:23pm 8.3 6.5 7.9 97 0.2 E 7 11 4 6 1031.3 - 0.0
21/11:00pm 8.4 6.2 7.8 96 0.3 ESE 9 9 5 5 1031.3 - 0.0
21/10:45pm 8.2 6.3 7.6 96 0.3 ESE 7 9 4 5 1031.3 - 0.0
21/10:30pm 8.6 7.1 8.4 99 0.1 SE 6 7 3 4 1031.4 - 0.0
21/10:25pm 8.9 7.4 8.3 96 0.3 SE 6 7 3 4 1031.4 - 0.0
21/10:01pm 8.1 6.4 7.7 97 0.2 SE 6 7 3 4 1031.5 - 0.0
21/10:00pm 8.1 6.4 7.7 97 0.2 SE 6 7 3 4 1031.5 - 0.0
21/09:50pm 8.2 6.6 7.8 97 0.2 SE 6 7 3 4 1031.5 - 0.0
21/09:30pm 8.6 6.4 7.8 95 0.4 SE 9 11 5 6 1031.4 - 0.0
21/09:00pm 9.1 7.5 8.7 97 0.2 SE 7 9 4 5 1031.4 1031.4 0.0
21/08:30pm 9.0 7.4 8.2 95 0.4 ESE 6 7 3 4 1031.2 - 0.0
21/08:00pm 9.1 7.5 8.1 93 0.5 SE 6 7 3 4 1031.0 - 0.0
21/07:30pm 9.8 8.7 8.6 92 0.6 E 4 6 2 3 1030.8 - 0.0
21/07:00pm 9.7 7.7 8.5 92 0.6 E 9 13 5 7 1030.6 - 0.0
21/06:30pm 10.0 8.0 8.6 91 0.7 E 9 11 5 6 1030.2 - 0.0
21/06:00pm 10.7 8.3 8.7 87 1.0 ESE 11 11 6 6 1030.0 1030.0 0.0
21/05:30pm 11.8 8.8 9.2 84 1.3 E 15 17 8 9 1029.8 - 0.0
21/05:00pm 13.2 9.4 9.0 75 2.1 ESE 19 24 10 13 1029.5 - 0.0
21/04:30pm 13.7 9.3 9.0 73 2.4 E 22 30 12 16 1029.3 - 0.0
21/04:00pm 14.0 9.3 9.3 73 2.4 E 24 30 13 16 1029.2 - 0.0
21/03:30pm 14.1 8.9 8.8 70 2.7 E 26 32 14 17 1029.0 - 0.0
21/03:00pm 14.2 8.3 7.5 64 3.3 E 28 35 15 19 1029.0 1029.0 0.0
21/02:30pm 14.5 9.1 7.9 64 3.3 E 26 32 14 17 1028.9 - 0.0
21/02:00pm 14.4 8.3 6.8 60 3.7 E 28 33 15 18 1029.2 - 0.0
21/01:30pm 14.7 8.7 6.9 59 3.8 E 28 35 15 19 1029.5 - 0.0
21/01:00pm 14.3 7.8 4.9 53 4.4 E 28 35 15 19 1029.9 - 0.0
21/12:30pm 14.5 9.1 6.2 57 4.0 E 24 30 13 16 1030.1 - 0.0
21/12:00pm 14.0 9.6 6.5 60 3.6 E 19 24 10 13 1030.6 1030.6 0.0
21/11:30am 13.4 8.9 7.0 65 3.1 E 20 24 11 13 1031.0 - 0.0
21/11:00am 12.9 8.7 7.3 69 2.7 E 19 24 10 13 1031.2 - 0.0
21/10:30am 12.9 9.1 7.6 70 2.6 E 17 22 9 12 1031.4 - 0.0
21/10:00am 12.7 8.4 7.1 69 2.7 NE 19 24 10 13 1031.3 - 0.0
21/09:30am 12.0 8.0 6.8 70 2.5 ENE 17 22 9 12 1031.3 - 0.0
21/09:00am 11.5 7.7 5.9 68 2.6 ENE 15 20 8 11 1031.3 1031.3 0.2
21/08:30am 10.3 7.5 6.9 79 1.6 ENE 11 13 6 7 1031.1 - 0.2
21/08:00am 9.1 7.0 6.5 84 1.2 ESE 7 9 4 5 1031.0 - 0.2
21/07:30am 6.0 3.3 3.9 86 0.9 ESE 7 7 4 4 1030.8 - 0.2
21/07:00am 4.6 1.9 3.9 95 0.3 E 7 9 4 5 1030.4 - 0.2
21/06:30am 2.7 -0.2 1.7 93 0.4 ENE 6 7 3 4 1030.3 - 0.2
21/06:00am 4.6 1.9 3.6 93 0.4 E 7 7 4 4 1029.9 1029.9 0.2
21/05:30am 4.4 1.3 3.7 95 0.3 ENE 9 11 5 6 1029.6 - 0.2
21/05:00am 5.0 2.2 3.3 89 0.7 ENE 7 9 4 5 1029.5 - 0.2
21/04:30am 5.7 2.6 3.8 87 0.8 NE 9 11 5 6 1029.4 - 0.2
21/04:00am 7.2 4.3 4.7 84 1.1 NE 9 11 5 6 1029.3 - 0.2
21/03:30am 9.3 6.2 5.6 78 1.7 ENE 11 13 6 7 1029.1 - 0.2
21/03:00am 9.0 6.4 5.9 81 1.4 E 9 11 5 6 1029.0 1029.0 0.2
21/02:30am 9.1 6.4 5.6 79 1.6 E 9 11 5 6 1029.2 - 0.2
21/02:00am 9.0 6.7 5.7 80 1.5 NE 7 9 4 5 1029.3 - 0.2
21/01:30am 9.6 6.5 5.7 76 1.8 NNE 11 15 6 8 1029.4 - 0.2
21/01:00am 9.7 7.1 6.2 79 1.6 N 9 15 5 8 1029.4 - 0.2
21/12:30am 9.3 6.7 6.0 80 1.5 ESE 9 11 5 6 1029.4 - 0.2
21/12:00am 9.2 6.6 5.9 80 1.5 E 9 9 5 5 1029.4 1029.4 0.2
 
Date/Time
EST
Temp
°C
App
Temp
°C
Dew
Point
Rel
Hum
%
Delta-T
°C
Wind Press
QNH
hPa
Press
MSL
hPa
Rain
since 9 am
mm
Dir
 
Spd
km/h
Gust
km/h
Spd
kts
Gust
kts
20/11:30pm 9.2 6.8 5.2 76 1.8 ENE 7 9 4 5 1029.5 - 0.2
20/11:00pm 9.3 6.9 5.1 75 1.9 NE 7 9 4 5 1029.3 - 0.2
20/10:30pm 9.4 7.2 5.2 75 1.9 NE 6 7 3 4 1029.3 - 0.2
20/10:00pm 9.0 8.3 6.9 87 1.0 CALM 0 0 0 0 1029.5 - 0.2
20/09:30pm 9.5 8.5 5.5 76 1.8 CALM 0 0 0 0 1029.5 - 0.2
20/09:00pm 9.7 7.4 4.8 71 2.2 N 6 7 3 4 1029.4 1029.4 0.2
20/08:30pm 9.8 7.5 4.9 71 2.2 N 6 9 3 5 1029.3 - 0.2
20/08:00pm 9.8 7.4 5.2 73 2.1 N 7 11 4 6 1029.1 - 0.2
20/07:30pm 10.1 7.3 5.0 70 2.3 NE 9 11 5 6 1029.0 - 0.2
20/07:00pm 10.4 7.3 5.6 72 2.2 ENE 11 17 6 9 1028.8 - 0.2
20/06:30pm 10.6 7.9 5.8 72 2.2 ENE 9 11 5 6 1028.5 - 0.2
20/06:00pm 10.6 7.7 6.3 75 2.0 E 11 13 6 7 1028.0 1028.0 0.2
20/05:30pm 11.3 8.6 5.4 67 2.7 ENE 9 11 5 6 1027.6 - 0.2
20/05:00pm 11.9 9.5 5.2 63 3.1 NNE 7 9 4 5 1027.2 - 0.2
20/04:30pm 12.0 9.4 4.2 59 3.5 NNE 7 11 4 6 1027.0 - 0.2
20/04:00pm 12.7 10.0 3.8 54 4.0 N 7 11 4 6 1026.8 - 0.2
20/03:30pm 12.5 10.2 2.7 51 4.3 W 4 9 2 5 1026.7 - 0.2
20/03:00pm 12.8 9.6 3.1 51 4.3 S 9 13 5 7 1026.7 1026.7 0.2
20/02:30pm 12.7 10.0 3.5 53 4.1 N 7 11 4 6 1026.5 - 0.2
20/02:00pm 13.0 9.8 3.1 51 4.4 NNW 9 13 5 7 1026.5 - 0.2
20/01:30pm 12.9 9.6 2.6 49 4.5 W 9 13 5 7 1026.6 - 0.2
20/01:00pm 13.2 9.9 2.2 47 4.8 N 9 13 5 7 1026.8 - 0.2
20/12:30pm 11.9 8.2 2.1 51 4.2 W 11 20 6 11 1027.1 - 0.2
20/12:00pm 11.9 8.9 2.1 51 4.2 NNW 7 11 4 6 1027.2 1027.2 0.2
20/11:30am 12.6 9.5 1.3 46 4.8 WNW 7 11 4 6 1027.6 - 0.2
20/11:00am 11.8 8.8 2.3 52 4.1 WNW 7 13 4 7 1027.8 - 0.0
20/10:30am 11.4 8.1 2.6 54 3.8 NW 9 13 5 7 1027.7 - 0.0
20/10:00am 11.5 8.1 4.1 60 3.3 W 11 13 6 7 1027.7 - 0.0
20/09:30am 9.1 5.5 4.8 74 1.9 W 13 15 7 8 1027.7 - 0.0
20/09:00am 8.7 5.1 5.1 78 1.6 WNW 13 15 7 8 1027.5 1027.5 0.0
20/08:30am 8.0 5.2 5.3 83 1.2 W 9 13 5 7 1027.4 - 0.0
20/08:00am 7.7 4.9 5.2 84 1.1 W 9 13 5 7 1027.1 - 0.0
20/07:30am 7.3 4.7 6.0 91 0.6 WNW 9 11 5 6 1026.9 - 0.0
20/07:00am 7.2 4.5 5.4 88 0.8 NW 9 11 5 6 1026.5 - 0.0
20/06:30am 7.0 4.3 5.7 91 0.6 W 9 13 5 7 1026.3 - 0.0
20/06:00am 6.9 3.9 6.0 94 0.4 W 11 13 6 7 1026.0 1026.0 0.0
20/05:30am 6.9 3.5 5.8 93 0.5 WNW 13 15 7 8 1025.9 - 0.0
20/05:00am 6.9 3.9 6.0 94 0.4 WNW 11 13 6 7 1025.9 - 0.0
20/04:30am 7.3 4.7 6.2 93 0.5 NW 9 11 5 6 1025.7 - 0.0
20/04:00am 7.5 5.0 6.4 93 0.5 WNW 9 11 5 6 1025.6 - 0.0
20/03:30am 7.9 5.0 6.4 90 0.7 W 11 13 6 7 1025.6 - 0.0
20/03:00am 8.3 5.6 5.6 83 1.2 W 9 9 5 5 1025.5 1025.5 0.0
20/02:30am 8.7 6.0 5.4 80 1.5 W 9 13 5 7 1025.6 - 0.0
20/02:00am 8.3 6.0 5.6 83 1.2 W 7 9 4 5 1025.7 - 0.0
20/01:30am 9.1 6.0 5.6 79 1.6 WSW 11 13 6 7 1025.9 - 0.0
20/01:00am 9.5 6.1 5.8 78 1.7 SW 13 17 7 9 1025.8 - 0.0
20/12:30am 9.6 6.6 5.9 78 1.7 SW 11 15 6 8 1025.7 - 0.0
20/12:00am 9.4 7.3 6.6 83 1.3 WSW 7 11 4 6 1025.8 1025.8 0.0
 
Date/Time
EST
Temp
°C
App
Temp
°C
Dew
Point
Rel
Hum
%
Delta-T
°C
Wind Press
QNH
hPa
Press
MSL
hPa
Rain
since 9 am
mm
Dir
 
Spd
km/h
Gust
km/h
Spd
kts
Gust
kts
19/11:30pm 9.8 7.8 6.1 78 1.7 SW 6 7 3 4 1025.8 - 0.0
19/11:00pm 9.9 7.7 6.2 78 1.7 SSW 7 11 4 6 1025.8 - 0.0
19/10:30pm 10.0 7.9 6.6 79 1.6 SSW 7 9 4 5 1025.8 - 0.0
19/10:00pm 10.2 7.8 6.8 79 1.6 S 9 13 5 7 1025.9 - 0.0

Other Formats:

Comma delimited format used in spreadsheet applications
http://www.bom.gov.au/fwo/IDV60801/IDV60801.94907.axf

JavaScript Object Notation format (JSON) in row-major order
http://www.bom.gov.au/fwo/IDV60801/IDV60801.94907.json